Lone Tree, Colorado
Current Conditions -  °F | °C
As of 7:53 AM on Monday 24 Nov 2014 (Local Time) from KAPA Reporting Station
Broken Clouds Broken Clouds  
Wind Chill: 22°   Ceiling: 11000
Heat Index: 31°   Visibility: 10mi
Dew Point:   Wind: 10mph
Humidity: 40%   Direction: 290°WNW
Pressure: 29.91"   Gusts: NA
Location:  39.5742°N, 104.858°W
Report Text: KAPA 241453Z 29009KT 10SM FEW090 BKN110 BKN180 M01/M13 A2991 RMK AO2 SLP156 T10061128 53011
Loading
Personal Weather Stations






























Interactive Weather Map New forecast layout! Learn more

10-Day Weather Forecast

Advertisements
Track Severe Weather on mobile